Time;durP1;ratioP1;P1;durP2;ratioP2;P2;SDS_P1;SDS_P2;PMS_P1;PMS_P2;Temp;Humidity;BMP_temperature;BMP_pressure;BME280_temperature;BME280_humidity;BME280_pressure;Samples;Min_cycle;Max_cycle;Signal;HPM_P1;HPM_P2
2022/01/17 00:00:22;;;;;;;20.40;13.00;;;;;;;1.55;82.15;99867.36;105179;1284;22739;-85
2022/01/17 00:02:51;;;;;;;24.30;15.80;;;;;;;1.53;81.96;99858.98;104521;1292;22910;-85
2022/01/17 00:05:20;;;;;;;21.00;14.20;;;;;;;1.54;82.21;99843.56;104415;1290;22700;-83
2022/01/17 00:07:47;;;;;;;26.00;17.10;;;;;;;1.55;82.29;99844.81;104504;1291;22719;-84
2022/01/17 00:10:15;;;;;;;20.90;14.80;;;;;;;1.53;82.13;99831.23;104321;1291;24071;-82
2022/01/17 00:12:45;;;;;;;18.80;12.30;;;;;;;1.49;82.42;99831.15;104456;1290;24244;-83
2022/01/17 00:15:22;;;;;;;20.90;13.60;;;;;;;1.45;82.52;99833.67;104201;1291;22660;-84
2022/01/17 00:18:09;;;;;;;27.50;15.30;;;;;;;1.41;82.83;99817.29;104527;1290;22662;-81
2022/01/17 00:20:36;;;;;;;26.10;16.60;;;;;;;1.39;83.07;99812.56;104634;1285;22547;-84
2022/01/17 00:23:03;;;;;;;27.90;16.40;;;;;;;1.38;83.31;99806.99;105089;1285;22648;-83
2022/01/17 00:25:30;;;;;;;20.10;11.60;;;;;;;1.39;83.18;99804.23;105162;1285;22599;-82
2022/01/17 00:27:57;;;;;;;23.50;15.70;;;;;;;1.41;83.36;99784.67;105315;1284;23503;-82
2022/01/17 00:30:24;;;;;;;26.60;16.10;;;;;;;1.46;83.47;99775.56;105246;1285;25272;-84
2022/01/17 00:32:51;;;;;;;24.90;16.00;;;;;;;1.51;83.33;99771.48;104607;1290;24281;-83
2022/01/17 00:35:18;;;;;;;30.00;17.80;;;;;;;1.48;83.48;99771.44;104588;1290;22594;-83
2022/01/17 00:37:45;;;;;;;24.80;16.20;;;;;;;1.51;83.34;99777.56;104686;1290;24303;-83
2022/01/17 00:40:13;;;;;;;25.70;16.30;;;;;;;1.47;83.34;99771.41;104757;1285;24266;-84
2022/01/17 00:42:40;;;;;;;24.60;17.30;;;;;;;1.49;83.45;99767.63;104711;1290;24344;-83
2022/01/17 00:45:11;;;;;;;28.60;16.30;;;;;;;1.56;83.39;99773.48;104661;1290;22598;-80
2022/01/17 00:47:39;;;;;;;28.20;18.10;;;;;;;1.55;83.40;99758.72;104040;1293;25399;-85
2022/01/17 00:50:07;;;;;;;25.30;15.50;;;;;;;1.54;83.33;99767.54;103899;1294;22574;-82
2022/01/17 00:52:34;;;;;;;26.10;16.80;;;;;;;1.54;83.35;99751.59;104672;1290;25553;-82
2022/01/17 00:55:02;;;;;;;25.20;15.70;;;;;;;1.54;83.54;99750.88;104628;1291;22566;-82
2022/01/17 00:57:29;;;;;;;30.90;17.40;;;;;;;1.51;83.56;99743.02;104658;1288;22582;-83
2022/01/17 00:59:56;;;;;;;27.20;17.40;;;;;;;1.51;83.94;99725.33;104701;1288;25526;-85
2022/01/17 01:02:23;;;;;;;24.90;14.60;;;;;;;1.54;83.91;99743.25;105169;1284;24235;-83
2022/01/17 01:04:51;;;;;;;29.20;17.80;;;;;;;1.55;83.84;99747.25;105375;1284;22645;-88
2022/01/17 01:07:18;;;;;;;25.00;16.30;;;;;;;1.56;83.85;99750.05;104974;1284;25624;-80
2022/01/17 01:09:58;;;;;;;28.50;18.50;;;;;;;1.57;83.95;99751.81;105090;1284;22783;-80
2022/01/17 01:12:25;;;;;;;25.70;15.90;;;;;;;1.62;84.03;99743.21;105019;1287;22565;-78
2022/01/17 01:14:52;;;;;;;19.50;12.80;;;;;;;1.60;83.84;99730.35;105209;1284;22744;-81
2022/01/17 01:17:32;;;;;;;25.60;16.90;;;;;;;1.59;84.04;99722.34;105043;1284;22573;-80
2022/01/17 01:20:13;;;;;;;27.30;16.00;;;;;;;1.61;84.11;99716.81;104942;1285;23039;-81
2022/01/17 01:28:12;;;;;;;24.30;15.00;;;;;;;1.62;84.11;99693.56;105139;1287;25392;-83
2022/01/17 01:30:43;;;;;;;24.40;15.60;;;;;;;1.58;84.25;99686.56;104709;1287;22770;-84
2022/01/17 01:33:11;;;;;;;20.30;13.20;;;;;;;1.58;84.34;99688.30;104868;1287;22778;-83
2022/01/17 01:35:45;;;;;;;26.70;17.90;;;;;;;1.60;84.34;99686.77;104690;1288;22541;-83
2022/01/17 01:38:12;;;;;;;23.30;15.50;;;;;;;1.66;84.41;99673.33;104221;1293;25570;-85
2022/01/17 01:40:39;;;;;;;25.00;17.60;;;;;;;1.66;84.27;99669.16;104095;1291;25437;-85
2022/01/17 01:43:07;;;;;;;23.70;16.40;;;;;;;1.65;84.36;99659.77;105253;1290;23066;-86
2022/01/17 01:45:34;;;;;;;29.40;18.10;;;;;;;1.63;84.54;99661.64;104510;1291;22555;-87
2022/01/17 01:48:01;;;;;;;24.90;17.50;;;;;;;1.63;84.59;99659.22;104984;1290;22698;-88
2022/01/17 01:50:28;;;;;;;23.60;14.60;;;;;;;1.64;84.73;99663.05;105068;1290;25531;-86
2022/01/17 01:52:55;;;;;;;25.80;15.70;;;;;;;1.63;84.69;99651.57;105351;1289;24246;-87
2022/01/17 01:55:22;;;;;;;23.70;14.60;;;;;;;1.62;84.75;99640.12;105310;1291;24027;-85
2022/01/17 01:57:49;;;;;;;23.40;14.80;;;;;;;1.64;84.70;99657.67;105483;1290;23818;-86
2022/01/17 02:00:17;;;;;;;28.40;18.30;;;;;;;1.65;84.69;99648.48;105559;1290;24279;-84
2022/01/17 02:02:47;;;;;;;25.40;16.30;;;;;;;1.70;84.99;99643.17;105013;1290;24340;-85
2022/01/17 02:05:15;;;;;;;27.10;17.30;;;;;;;1.73;84.85;99644.10;106022;1285;22815;-85
2022/01/17 02:07:44;;;;;;;21.20;14.60;;;;;;;1.76;84.73;99634.23;105562;1285;25321;-85
2022/01/17 02:10:12;;;;;;;26.40;18.40;;;;;;;1.79;84.68;99631.33;105916;1287;22720;-86
2022/01/17 02:12:40;;;;;;;28.70;19.40;;;;;;;1.79;84.55;99617.44;105704;1287;25276;-85
2022/01/17 02:15:11;;;;;;;25.20;14.60;;;;;;;1.83;84.58;99605.52;105528;1285;22547;-86
2022/01/17 02:17:45;;;;;;;25.10;18.40;;;;;;;1.84;84.50;99590.42;105873;1281;24241;-86
2022/01/17 02:20:20;;;;;;;25.80;18.30;;;;;;;1.91;84.50;99591.21;105915;1281;24236;-86
2022/01/17 02:22:50;;;;;;;26.80;17.60;;;;;;;2.00;84.58;99584.73;105695;1281;25519;-83
2022/01/17 02:25:17;;;;;;;23.40;17.00;;;;;;;2.08;84.42;99592.99;105305;1279;22740;-82
2022/01/17 02:27:45;;;;;;;30.70;19.10;;;;;;;2.07;84.00;99583.08;105312;1284;25342;-83
2022/01/17 02:30:14;;;;;;;25.50;17.90;;;;;;;2.05;84.00;99583.93;105372;1281;25486;-84
2022/01/17 02:32:41;;;;;;;21.40;15.00;;;;;;;2.04;83.94;99577.14;105754;1281;23095;-83
2022/01/17 02:35:20;;;;;;;25.40;17.10;;;;;;;2.00;83.83;99564.41;105696;1281;25612;-85
2022/01/17 02:37:48;;;;;;;26.60;17.80;;;;;;;1.99;83.94;99561.61;105739;1281;23207;-86
2022/01/17 02:40:18;;;;;;;25.10;16.40;;;;;;;2.05;84.07;99557.85;106438;1281;22566;-88
2022/01/17 02:43:01;;;;;;;22.70;15.00;;;;;;;2.06;83.81;99541.05;105574;1281;24511;-87
2022/01/17 02:45:36;;;;;;;27.00;18.10;;;;;;;2.03;83.78;99526.41;105627;1282;22596;-88
2022/01/17 02:48:11;;;;;;;26.50;16.00;;;;;;;2.04;83.85;99529.54;105258;1287;25406;-87
2022/01/17 02:50:39;;;;;;;27.40;18.10;;;;;;;2.03;84.00;99513.38;105433;1285;23445;-86
2022/01/17 02:53:09;;;;;;;29.40;17.90;;;;;;;2.05;84.01;99513.58;105025;1290;23644;-86
2022/01/17 02:55:38;;;;;;;30.80;19.40;;;;;;;2.06;83.86;99505.77;104415;1297;22583;-84
2022/01/17 02:58:05;;;;;;;27.90;18.60;;;;;;;2.08;83.97;99499.70;104397;1296;22657;-87
2022/01/17 03:00:32;;;;;;;27.90;17.00;;;;;;;2.12;83.91;99500.63;104501;1296;22588;-82
2022/01/17 03:03:00;;;;;;;30.90;19.90;;;;;;;2.12;83.85;99492.98;105137;1296;22756;-81
2022/01/17 03:05:27;;;;;;;28.80;17.30;;;;;;;2.18;83.88;99482.11;105693;1291;22912;-79
2022/01/17 03:07:54;;;;;;;26.60;19.70;;;;;;;2.23;83.73;99477.98;107073;1290;22563;-78
2022/01/17 03:13:08;;;;;;;30.30;19.40;;;;;;;2.30;83.29;99473.38;105555;1285;22583;-79
2022/01/17 03:15:36;;;;;;;26.90;18.20;;;;;;;2.31;83.23;99471.27;107683;1285;24271;-82
2022/01/17 03:18:03;;;;;;;24.50;15.90;;;;;;;2.32;83.18;99478.60;107217;1287;24444;-81
2022/01/17 03:20:34;;;;;;;25.50;17.30;;;;;;;2.35;83.11;99466.81;106596;1287;23810;-81
2022/01/17 03:23:01;;;;;;;24.60;18.20;;;;;;;2.40;83.11;99458.86;105643;1287;25408;-80
2022/01/17 03:25:28;;;;;;;25.10;17.50;;;;;;;2.44;82.95;99450.21;104949;1293;22589;-82
2022/01/17 03:27:56;;;;;;;27.80;17.30;;;;;;;2.47;82.79;99456.15;104125;1296;24262;-81
2022/01/17 03:30:23;;;;;;;24.60;16.40;;;;;;;2.51;82.74;99461.90;104109;1299;24207;-77
2022/01/17 03:32:50;;;;;;;21.80;14.80;;;;;;;2.53;82.54;99461.05;103961;1296;22665;-79
2022/01/17 03:35:18;;;;;;;25.20;17.10;;;;;;;2.51;82.28;99441.40;103788;1297;24005;-79
2022/01/17 03:37:46;;;;;;;22.80;16.10;;;;;;;2.50;82.32;99443.30;103817;1297;22900;-78
2022/01/17 03:40:13;;;;;;;23.10;14.70;;;;;;;2.53;82.36;99437.94;103786;1297;25276;-83
2022/01/17 03:42:40;;;;;;;24.30;15.80;;;;;;;2.51;82.14;99436.88;103731;1297;24361;-83
2022/01/17 03:45:08;;;;;;;21.90;15.80;;;;;;;2.54;82.09;99437.08;104036;1293;24236;-82
2022/01/17 03:47:37;;;;;;;24.10;16.50;;;;;;;2.53;82.00;99439.67;104786;1287;22606;-81
2022/01/17 03:50:07;;;;;;;19.20;13.70;;;;;;;2.53;81.96;99440.54;105050;1287;22740;-83
2022/01/17 03:52:34;;;;;;;26.10;17.20;;;;;;;2.55;81.87;99423.70;105125;1287;24367;-82
2022/01/17 03:55:02;;;;;;;20.40;14.00;;;;;;;2.57;81.94;99416.95;105343;1287;25114;-84
2022/01/17 03:57:29;;;;;;;17.60;12.30;;;;;;;2.59;81.82;99411.58;105801;1281;22758;-82
2022/01/17 03:59:56;;;;;;;19.10;12.90;;;;;;;2.63;81.73;99397.69;105670;1281;23220;-82
2022/01/17 04:02:23;;;;;;;21.10;14.00;;;;;;;2.67;81.71;99392.15;105616;1281;22807;-81
2022/01/17 04:04:52;;;;;;;23.80;15.50;;;;;;;2.67;81.55;99382.95;105589;1281;24399;-84
2022/01/17 04:07:19;;;;;;;25.70;16.00;;;;;;;2.65;81.53;99382.59;105394;1281;25264;-83
2022/01/17 04:09:46;;;;;;;21.80;14.40;;;;;;;2.65;81.65;99365.38;105667;1281;22551;-84
2022/01/17 04:12:12;;;;;;;18.70;13.10;;;;;;;2.65;81.69;99355.29;105581;1281;22885;-84
2022/01/17 04:14:39;;;;;;;19.60;14.10;;;;;;;2.65;81.79;99342.45;105689;1281;22545;-85
2022/01/17 04:17:07;;;;;;;21.10;13.90;;;;;;;2.63;81.70;99326.77;105833;1279;25386;-85
2022/01/17 04:19:34;;;;;;;20.00;13.50;;;;;;;2.61;81.70;99323.98;105754;1280;22649;-84
2022/01/17 04:22:01;;;;;;;16.90;11.00;;;;;;;2.58;81.82;99309.17;105663;1281;22609;-85
2022/01/17 04:24:28;;;;;;;17.80;12.30;;;;;;;2.55;81.88;99296.83;105652;1280;22671;-86
2022/01/17 04:26:55;;;;;;;21.50;14.00;;;;;;;2.57;81.88;99297.88;105759;1281;22584;-84
2022/01/17 04:29:22;;;;;;;16.20;10.60;;;;;;;2.60;81.92;99287.63;106410;1279;22585;-85
2022/01/17 04:31:49;;;;;;;19.30;12.80;;;;;;;2.62;81.97;99269.41;106028;1279;23773;-85
2022/01/17 04:34:16;;;;;;;20.10;13.00;;;;;;;2.62;81.93;99265.23;105622;1285;23283;-86
2022/01/17 04:36:43;;;;;;;19.90;13.30;;;;;;;2.63;81.90;99258.11;105276;1284;24298;-84
2022/01/17 04:39:15;;;;;;;19.40;12.90;;;;;;;2.66;81.94;99263.86;104898;1290;22737;-84
2022/01/17 04:41:43;;;;;;;18.00;10.70;;;;;;;2.67;81.86;99254.99;104758;1290;22811;-83
2022/01/17 04:46:55;;;;;;;19.30;13.10;;;;;;;2.67;81.66;99247.68;104887;1290;22715;-82
2022/01/17 04:49:23;;;;;;;19.20;11.90;;;;;;;2.68;81.78;99237.09;104744;1291;25257;-81
2022/01/17 04:51:53;;;;;;;15.70;11.70;;;;;;;2.72;81.86;99238.33;104599;1290;24814;-82
2022/01/17 04:54:43;;;;;;;16.10;11.40;;;;;;;2.75;81.63;99240.41;104716;1290;22613;-81
2022/01/17 04:57:12;;;;;;;19.10;11.60;;;;;;;2.72;81.43;99229.46;105123;1284;23207;-83
2022/01/17 04:59:39;;;;;;;17.60;11.40;;;;;;;2.79;81.39;99233.31;105919;1281;22707;-81
2022/01/17 05:02:07;;;;;;;15.40;10.20;;;;;;;2.82;80.99;99226.02;105938;1281;22597;-84
2022/01/17 05:04:34;;;;;;;16.90;9.90;;;;;;;2.84;80.93;99214.39;106097;1279;23081;-81
2022/01/17 05:07:01;;;;;;;19.80;11.40;;;;;;;2.86;80.63;99208.99;106125;1281;22617;-84
2022/01/17 05:09:28;;;;;;;16.50;9.20;;;;;;;2.88;80.58;99207.27;106409;1281;22545;-86
2022/01/17 05:11:55;;;;;;;12.40;9.60;;;;;;;2.91;80.31;99204.83;107001;1281;24204;-84
2022/01/17 05:14:24;;;;;;;14.80;10.00;;;;;;;2.95;80.27;99195.80;106965;1279;24357;-84
2022/01/17 05:16:59;;;;;;;10.90;8.00;;;;;;;2.97;79.91;99191.63;106698;1279;25376;-88
2022/01/17 05:22:12;;;;;;;11.20;7.80;;;;;;;3.07;79.62;99193.76;106187;1279;23230;-83
2022/01/17 05:24:39;;;;;;;15.20;8.90;;;;;;;3.11;79.10;99174.61;105493;1284;22724;-84
2022/01/17 05:27:06;;;;;;;10.00;6.50;;;;;;;3.12;78.94;99162.61;105485;1282;25371;-84
2022/01/17 05:29:33;;;;;;;11.40;7.20;;;;;;;3.14;78.81;99163.66;105548;1282;22563;-83
2022/01/17 05:32:00;;;;;;;14.50;9.20;;;;;;;3.12;78.49;99137.91;105393;1282;22536;-85
2022/01/17 05:34:27;;;;;;;11.90;8.50;;;;;;;3.15;78.52;99124.69;105231;1282;23099;-81
2022/01/17 05:36:54;;;;;;;12.90;8.10;;;;;;;3.16;78.41;99105.03;105238;1282;24210;-85
2022/01/17 05:39:21;;;;;;;11.30;7.30;;;;;;;3.16;78.12;99109.21;105408;1282;23420;-86
2022/01/17 05:41:48;;;;;;;9.90;6.80;;;;;;;3.16;78.33;99109.20;105031;1284;22565;-83
2022/01/17 05:44:15;;;;;;;16.10;8.00;;;;;;;3.16;78.21;99107.47;105457;1281;24164;-82
2022/01/17 05:46:42;;;;;;;9.50;6.30;;;;;;;3.19;78.30;99106.60;105060;1286;23960;-81
2022/01/17 05:49:09;;;;;;;12.40;7.50;;;;;;;3.19;77.87;99115.30;104975;1285;22713;-83
2022/01/17 05:51:36;;;;;;;11.20;7.90;;;;;;;3.18;77.96;99092.67;105012;1285;24265;-84
2022/01/17 05:54:03;;;;;;;12.00;7.70;;;;;;;3.18;78.00;99099.46;104425;1290;22727;-83
2022/01/17 05:56:30;;;;;;;11.50;7.90;;;;;;;3.19;77.98;99109.02;104035;1296;22573;-83
2022/01/17 05:58:57;;;;;;;10.70;7.20;;;;;;;3.17;78.03;99096.50;103919;1296;23954;-80
2022/01/17 06:01:25;;;;;;;15.10;9.10;;;;;;;3.19;78.16;99078.75;103925;1296;22585;-83
2022/01/17 06:03:52;;;;;;;9.70;7.00;;;;;;;3.21;78.33;99066.06;103865;1297;25479;-83
2022/01/17 06:06:19;;;;;;;10.70;6.60;;;;;;;3.24;78.05;99058.23;104385;1291;24021;-82
2022/01/17 06:08:46;;;;;;;10.50;6.90;;;;;;;3.22;78.00;99052.67;104671;1290;22672;-81
2022/01/17 06:11:13;;;;;;;9.70;6.70;;;;;;;3.20;78.01;99056.84;104429;1290;25430;-82
2022/01/17 06:13:40;;;;;;;8.50;5.80;;;;;;;3.21;78.00;99035.45;105013;1284;22578;-82
2022/01/17 06:16:07;;;;;;;13.40;7.10;;;;;;;3.22;78.01;99044.15;105709;1279;26697;-81
2022/01/17 06:18:34;;;;;;;5.60;4.90;;;;;;;3.22;77.89;99014.91;105843;1279;22646;-82
2022/01/17 06:21:01;;;;;;;12.10;6.90;;;;;;;3.24;77.88;99019.61;105447;1279;22515;-81
2022/01/17 06:23:28;;;;;;;10.00;6.30;;;;;;;3.23;77.99;98995.25;105971;1279;25495;-84
2022/01/17 06:25:55;;;;;;;9.60;5.60;;;;;;;3.23;77.81;98988.13;105631;1279;22569;-82
2022/01/17 06:28:22;;;;;;;7.30;5.20;;;;;;;3.21;78.10;98981.52;105623;1279;22571;-83
2022/01/17 06:30:50;;;;;;;9.10;5.60;;;;;;;3.18;78.13;98955.24;105820;1279;24409;-83
2022/01/17 06:33:17;;;;;;;8.10;5.10;;;;;;;3.21;78.16;98953.14;105625;1279;24350;-88
2022/01/17 06:35:44;;;;;;;8.80;5.50;;;;;;;3.20;78.23;98956.45;105709;1279;24244;-77
2022/01/17 06:38:11;;;;;;;7.90;5.80;;;;;;;3.18;78.47;98952.30;106598;1279;25564;-80
2022/01/17 06:40:39;;;;;;;12.90;6.40;;;;;;;3.17;78.57;98937.84;107106;1279;26655;-85
2022/01/17 06:43:10;;;;;;;6.50;4.50;;;;;;;3.15;78.77;98921.66;106604;1279;25392;-87
2022/01/17 06:45:39;;;;;;;8.80;5.40;;;;;;;3.12;78.81;98931.25;106901;1284;25307;-86
2022/01/17 06:48:07;;;;;;;8.70;5.80;;;;;;;3.11;78.90;98907.77;106497;1284;22848;-88
2022/01/17 06:50:35;;;;;;;11.10;5.80;;;;;;;3.07;78.98;98878.73;105665;1284;23303;-86
2022/01/17 06:53:03;;;;;;;8.60;5.70;;;;;;;3.05;79.04;98870.91;105883;1284;22874;-86
2022/01/17 06:56:00;;;;;;;8.90;5.60;;;;;;;3.08;79.18;98875.93;106267;1283;24216;-85
2022/01/17 06:58:28;;;;;;;13.20;6.40;;;;;;;3.08;79.11;98870.38;106483;1288;22607;-87
2022/01/17 07:00:55;;;;;;;8.30;5.10;;;;;;;3.11;78.99;98851.75;106422;1290;23201;-84
2022/01/17 07:03:23;;;;;;;7.10;5.10;;;;;;;3.11;78.95;98866.36;106517;1285;22718;-82
2022/01/17 07:05:51;;;;;;;6.50;4.20;;;;;;;3.13;78.83;98891.77;106930;1285;22718;-86
2022/01/17 07:08:18;;;;;;;6.10;4.40;;;;;;;3.14;78.87;98902.89;107641;1285;22632;-86
2022/01/17 07:10:49;;;;;;;9.30;5.40;;;;;;;3.19;78.93;98899.74;108352;1284;22589;-85
2022/01/17 07:13:17;;;;;;;8.50;4.60;;;;;;;3.22;78.74;98913.30;106780;1290;22612;-85
2022/01/17 07:15:44;;;;;;;6.90;3.60;;;;;;;3.23;78.66;98917.64;106898;1284;22610;-85
2022/01/17 07:18:13;;;;;;;8.00;4.30;;;;;;;3.26;78.62;98933.13;108461;1284;22599;-86
2022/01/17 07:20:45;;;;;;;7.10;4.30;;;;;;;3.29;78.39;98935.02;107340;1293;22595;-84
2022/01/17 07:23:12;;;;;;;8.20;4.80;;;;;;;3.29;78.34;98922.67;107160;1290;22579;-84
2022/01/17 07:25:41;;;;;;;5.20;3.30;;;;;;;3.28;78.30;98881.09;106748;1290;22589;-83
2022/01/17 07:28:09;;;;;;;5.10;3.20;;;;;;;3.26;78.35;98878.67;106080;1293;22681;-83
2022/01/17 07:30:37;;;;;;;6.40;4.10;;;;;;;3.27;78.44;98877.80;104739;1296;22615;-84
2022/01/17 07:33:06;;;;;;;7.00;3.90;;;;;;;3.28;78.58;98849.95;104253;1299;22686;-84
2022/01/17 07:35:35;;;;;;;5.50;3.10;;;;;;;3.28;78.52;98860.91;104358;1296;25878;-84
2022/01/17 07:38:05;;;;;;;7.20;3.70;;;;;;;3.28;78.67;98836.55;105722;1290;22560;-83
2022/01/17 07:40:34;;;;;;;3.80;2.90;;;;;;;3.24;78.77;98812.56;106602;1290;22573;-83
2022/01/17 07:43:01;;;;;;;4.20;2.80;;;;;;;3.21;78.92;98796.55;106692;1290;22565;-84
2022/01/17 07:45:30;;;;;;;8.20;3.90;;;;;;;3.18;79.11;98785.09;105966;1285;24290;-82
2022/01/17 07:50:33;;;;;;;3.70;2.60;;;;;;;3.22;79.00;98765.59;105545;1285;23734;-83
2022/01/17 07:53:00;;;;;;;7.60;3.00;;;;;;;3.21;78.99;98753.59;105210;1285;25382;-78
2022/01/17 07:55:28;;;;;;;5.50;2.90;;;;;;;3.22;79.03;98714.45;105602;1279;23107;-86
2022/01/17 07:57:56;;;;;;;5.50;2.80;;;;;;;3.24;79.06;98705.91;105458;1279;22586;-85
2022/01/17 08:00:25;;;;;;;9.80;3.00;;;;;;;3.23;79.26;98706.25;105969;1281;22864;-84
2022/01/17 08:02:56;;;;;;;5.70;2.60;;;;;;;3.20;79.31;98699.50;105502;1283;22588;-85
2022/01/17 08:05:24;;;;;;;3.20;2.40;;;;;;;3.14;79.45;98673.43;105555;1285;25373;-85
2022/01/17 08:07:52;;;;;;;3.70;2.80;;;;;;;3.14;79.78;98675.35;106053;1284;24328;-85
2022/01/17 08:10:20;;;;;;;5.20;3.10;;;;;;;3.12;79.95;98700.42;105601;1284;22769;-85
2022/01/17 08:12:47;;;;;;;6.00;3.20;;;;;;;3.08;80.27;98675.21;105509;1284;25400;-86
2022/01/17 08:15:16;;;;;;;4.70;3.10;;;;;;;3.06;80.45;98679.40;105632;1284;23120;-81
2022/01/17 08:17:46;;;;;;;5.20;2.60;;;;;;;3.04;80.74;98687.08;105516;1284;22553;-86
2022/01/17 08:20:14;;;;;;;4.30;3.20;;;;;;;3.05;80.75;98692.98;105607;1279;26644;-88
2022/01/17 08:22:43;;;;;;;6.50;2.90;;;;;;;3.06;80.78;98682.35;106098;1279;22572;-86
2022/01/17 08:25:11;;;;;;;4.10;2.40;;;;;;;3.07;80.96;98706.02;105839;1279;24006;-86
2022/01/17 08:27:39;;;;;;;4.80;2.70;;;;;;;3.05;80.94;98666.20;105939;1279;24108;-88
2022/01/17 08:30:06;;;;;;;3.70;2.50;;;;;;;3.04;81.09;98670.89;105987;1279;23851;-87
2022/01/17 08:32:57;;;;;;;6.80;2.80;;;;;;;3.04;81.17;98646.89;106144;1281;242382;-86
2022/01/17 08:35:25;;;;;;;5.60;3.00;;;;;;;3.05;80.92;98646.20;106550;1279;24238;-79
2022/01/17 08:37:53;;;;;;;6.90;2.40;;;;;;;3.08;80.73;98663.21;106613;1285;22568;-87
2022/01/17 08:40:22;;;;;;;3.80;2.60;;;;;;;3.11;80.59;98652.59;105799;1284;25954;-86
2022/01/17 08:42:50;;;;;;;4.90;2.20;;;;;;;3.16;80.44;98622.10;105443;1285;25315;-85
2022/01/17 08:45:21;;;;;;;7.60;3.50;;;;;;;3.18;80.11;98629.05;105698;1285;22569;-87
2022/01/17 08:48:09;;;;;;;5.10;2.30;;;;;;;3.24;80.06;98626.40;105510;1287;22521;-87
2022/01/17 08:50:48;;;;;;;7.40;2.50;;;;;;;3.25;80.01;98637.35;105080;1290;22613;-86
2022/01/17 08:53:17;;;;;;;5.70;2.00;;;;;;;3.26;79.99;98671.45;104809;1290;25401;-87
2022/01/17 08:55:46;;;;;;;5.40;1.90;;;;;;;3.24;80.17;98790.98;105166;1285;25267;-85
2022/01/17 08:58:15;;;;;;;1.50;1.20;;;;;;;3.18;79.55;98866.16;105541;1285;25382;-85
2022/01/17 09:00:44;;;;;;;1.30;0.60;;;;;;;2.75;77.59;98926.25;105528;1284;25367;-84
2022/01/17 09:03:21;;;;;;;0.30;0.30;;;;;;;2.17;77.70;98930.76;104980;1285;22708;-85
2022/01/17 09:05:52;;;;;;;0.50;0.30;;;;;;;1.63;78.57;98938.77;105521;1284;25637;-87
2022/01/17 09:08:21;;;;;;;0.30;0.30;;;;;;;1.10;80.80;98952.56;105379;1285;24003;-87
2022/01/17 09:10:50;;;;;;;1.20;0.50;;;;;;;0.85;82.70;98958.82;104974;1290;22633;-83
2022/01/17 09:13:18;;;;;;;0.20;0.20;;;;;;;0.68;83.25;98970.48;104798;1290;23991;-86
2022/01/17 09:15:46;;;;;;;0.50;0.40;;;;;;;0.52;82.57;98971.73;105317;1285;22488;-83
2022/01/17 09:18:14;;;;;;;0.50;0.50;;;;;;;0.40;82.67;98968.66;104983;1290;24239;-84
2022/01/17 09:20:42;;;;;;;0.50;0.40;;;;;;;0.40;82.63;98978.02;104891;1289;24774;-85
2022/01/17 09:23:10;;;;;;;1.20;0.60;;;;;;;0.42;82.11;98987.21;104995;1290;22638;-84
2022/01/17 09:25:38;;;;;;;1.30;0.70;;;;;;;0.39;81.84;98994.48;105025;1290;25468;-84
2022/01/17 09:28:05;;;;;;;0.70;0.50;;;;;;;0.39;81.61;98997.08;105033;1290;25391;-82
2022/01/17 09:30:36;;;;;;;0.60;0.60;;;;;;;0.35;81.49;99005.34;104826;1291;24322;-84
2022/01/17 09:33:06;;;;;;;0.90;0.80;;;;;;;0.40;81.61;99018.55;105425;1290;22594;-85
2022/01/17 09:35:36;;;;;;;0.90;0.90;;;;;;;0.42;81.39;99022.73;105252;1284;22547;-74
2022/01/17 09:38:04;;;;;;;1.50;1.00;;;;;;;0.38;81.03;99015.92;105640;1279;22588;-84
2022/01/17 09:40:33;;;;;;;2.00;1.10;;;;;;;0.40;80.69;99013.87;105689;1279;24302;-83
2022/01/17 09:43:20;;;;;;;4.80;1.10;;;;;;;0.36;80.53;99006.05;106415;1279;25257;-82
2022/01/17 09:45:48;;;;;;;2.20;1.10;;;;;;;0.40;80.66;99000.87;105698;1284;22634;-83
2022/01/17 09:48:20;;;;;;;1.50;0.90;;;;;;;0.41;80.45;99004.54;105462;1284;22566;-77
2022/01/17 09:53:45;;;;;;;1.60;0.80;;;;;;;0.42;80.35;98997.97;104837;1284;23845;-75
2022/01/17 09:56:14;;;;;;;1.70;0.90;;;;;;;0.39;80.17;98994.30;105135;1284;26822;-71
2022/01/17 09:58:42;;;;;;;1.60;1.10;;;;;;;0.35;80.02;98986.11;105247;1284;24311;-76
2022/01/17 10:01:09;;;;;;;3.00;1.30;;;;;;;0.35;80.19;98995.30;105195;1285;22956;-74
2022/01/17 10:03:39;;;;;;;2.60;1.20;;;;;;;0.39;79.91;98992.39;105135;1279;26658;-74
2022/01/17 10:06:06;;;;;;;1.30;1.10;;;;;;;0.34;79.76;98985.60;105637;1279;26002;-73
2022/01/17 10:08:33;;;;;;;1.00;0.90;;;;;;;0.37;79.89;98988.91;105663;1279;25262;-69
2022/01/17 10:11:02;;;;;;;1.60;1.20;;;;;;;0.42;79.51;99004.89;105644;1279;22572;-73
2022/01/17 10:42:46;;;;;;;1.40;1.00;;;;;;;0.30;77.71;99050.85;102964;1306;545596;-85
2022/01/17 10:45:24;;;;;;;1.40;1.10;;;;;;;0.34;76.94;99051.39;106224;1271;25503;-80
2022/01/17 10:47:55;;;;;;;1.70;1.20;;;;;;;0.45;76.81;99060.70;106430;1273;22924;-79
2022/01/17 10:50:26;;;;;;;1.80;1.20;;;;;;;0.57;76.69;99084.20;106899;1277;25369;-81
2022/01/17 10:52:59;;;;;;;2.80;1.30;;;;;;;0.62;75.89;99085.48;108419;1276;22567;-80
2022/01/17 10:55:36;;;;;;;3.70;1.10;;;;;;;0.67;75.84;99075.66;107496;1274;258344;-83
2022/01/17 10:58:36;;;;;;;5.20;1.30;;;;;;;0.77;75.81;99066.21;107186;1274;23031;-74
2022/01/17 11:01:05;;;;;;;2.80;0.90;;;;;;;0.82;75.46;99080.11;106673;1274;24556;-76
2022/01/17 11:03:35;;;;;;;3.60;1.60;;;;;;;0.83;75.63;99100.05;106500;1277;22840;-72
2022/01/17 11:06:05;;;;;;;5.20;2.00;;;;;;;0.83;75.45;99122.77;106407;1273;22532;-76
2022/01/17 11:08:34;;;;;;;2.70;1.20;;;;;;;0.78;75.33;99121.67;106694;1267;22546;-74
2022/01/17 11:11:05;;;;;;;4.20;1.60;;;;;;;0.75;75.27;99130.14;107164;1268;25311;-74
2022/01/17 11:13:38;;;;;;;6.10;2.30;;;;;;;0.84;75.36;99135.41;107325;1268;25663;-75
2022/01/17 11:16:11;;;;;;;2.80;1.40;;;;;;;1.07;75.30;99141.20;107882;1268;25345;-84
2022/01/17 11:18:45;;;;;;;3.00;1.80;;;;;;;1.45;74.84;99144.48;108821;1267;22642;-84
2022/01/17 11:21:16;;;;;;;2.50;1.60;;;;;;;1.88;74.77;99145.81;108581;1268;22624;-84
2022/01/17 11:23:49;;;;;;;5.50;2.30;;;;;;;2.18;72.82;99137.46;107611;1267;22717;-84
2022/01/17 11:26:18;;;;;;;2.60;1.50;;;;;;;2.40;72.26;99127.83;107307;1270;22702;-85
2022/01/17 11:28:47;;;;;;;2.40;1.30;;;;;;;2.60;71.47;99129.12;107735;1267;23921;-84
2022/01/17 11:31:16;;;;;;;2.90;1.60;;;;;;;2.72;70.33;99137.50;106772;1268;24119;-87
2022/01/17 11:33:46;;;;;;;4.20;1.90;;;;;;;2.89;70.10;99141.54;106693;1267;23279;-87
2022/01/17 11:36:16;;;;;;;4.00;1.60;;;;;;;3.05;69.02;99147.46;107922;1267;22690;-85
2022/01/17 11:38:47;;;;;;;2.30;1.20;;;;;;;3.19;69.11;99157.92;108749;1270;25250;-87
2022/01/17 11:41:30;;;;;;;3.40;1.60;;;;;;;3.29;67.25;99167.16;108488;1269;22539;-86
2022/01/17 11:43:58;;;;;;;3.20;1.50;;;;;;;3.41;66.56;99187.17;108381;1274;22664;-85
2022/01/17 11:46:29;;;;;;;4.00;1.80;;;;;;;3.43;66.21;99197.63;107719;1277;22888;-86
2022/01/17 11:49:06;;;;;;;3.30;1.60;;;;;;;3.54;66.35;99196.41;107464;1277;22721;-86
2022/01/17 11:51:35;;;;;;;3.60;1.90;;;;;;;3.68;64.91;99196.58;106537;1277;25639;-84
2022/01/17 11:54:29;;;;;;;3.40;1.70;;;;;;;3.42;63.96;99200.23;106648;1277;22674;-85
2022/01/17 11:57:04;;;;;;;3.90;2.30;;;;;;;3.09;64.01;99194.96;106570;1280;22551;-86
2022/01/17 11:59:49;;;;;;;4.70;1.80;;;;;;;2.89;65.25;99211.79;106308;1277;22537;-85
2022/01/17 12:02:32;;;;;;;3.90;1.80;;;;;;;2.74;65.58;99240.60;106430;1274;22547;-86
2022/01/17 12:05:03;;;;;;;4.00;1.50;;;;;;;2.53;64.70;99256.48;106673;1270;24265;-86
2022/01/17 12:07:37;;;;;;;3.50;1.40;;;;;;;2.37;65.25;99261.79;106623;1268;22726;-84
2022/01/17 12:10:17;;;;;;;2.50;1.30;;;;;;;2.23;65.09;99271.61;106850;1270;25558;-85
2022/01/17 12:13:18;;;;;;;2.90;1.40;;;;;;;2.16;64.52;99273.98;107981;1268;25465;-84
2022/01/17 12:15:56;;;;;;;4.10;1.70;;;;;;;2.42;65.36;99287.54;107522;1270;25516;-84
2022/01/17 12:18:32;;;;;;;7.30;2.40;;;;;;;2.86;63.99;99289.34;106744;1269;25377;-86
2022/01/17 12:21:17;;;;;;;;;;;;;;;3.18;62.93;99301.82;106682;1269;25503;-84
2022/01/17 12:23:45;;;;;;;4.20;1.90;;;;;;;3.30;61.68;99311.08;106547;1270;22567;-83
2022/01/17 12:26:31;;;;;;;3.60;1.90;;;;;;;3.35;61.58;99307.95;106520;1270;22559;-79